sensor_id;sensor_type;location;lat;lon;timestamp;P1;durP1;ratioP1;P2;durP2;ratioP2
63379;SDS011;53160;55.014;73.156;2023-03-14T00:00:29;20.00;;;16.80;;
63379;SDS011;53160;55.014;73.156;2023-03-14T00:03:00;27.40;;;25.20;;
63379;SDS011;53160;55.014;73.156;2023-03-14T00:05:29;18.80;;;18.00;;
63379;SDS011;53160;55.014;73.156;2023-03-14T00:08:14;18.60;;;17.20;;
63379;SDS011;53160;55.014;73.156;2023-03-14T00:11:03;21.40;;;18.00;;
63379;SDS011;53160;55.014;73.156;2023-03-14T00:13:49;22.20;;;17.60;;
63379;SDS011;53160;55.014;73.156;2023-03-14T00:16:38;22.00;;;21.00;;
63379;SDS011;53160;55.014;73.156;2023-03-14T00:19:23;23.60;;;18.80;;
63379;SDS011;53160;55.014;73.156;2023-03-14T00:22:12;19.40;;;17.20;;
63379;SDS011;53160;55.014;73.156;2023-03-14T00:25:08;20.80;;;19.40;;
63379;SDS011;53160;55.014;73.156;2023-03-14T00:27:53;17.00;;;15.60;;
63379;SDS011;53160;55.014;73.156;2023-03-14T00:30:37;14.00;;;9.40;;
63379;SDS011;53160;55.014;73.156;2023-03-14T00:33:26;22.60;;;19.80;;
63379;SDS011;53160;55.014;73.156;2023-03-14T00:36:15;15.00;;;11.60;;
63379;SDS011;53160;55.014;73.156;2023-03-14T00:38:59;20.20;;;18.80;;
63379;SDS011;53160;55.014;73.156;2023-03-14T00:41:54;22.40;;;15.20;;
63379;SDS011;53160;55.014;73.156;2023-03-14T00:44:40;20.20;;;17.60;;
63379;SDS011;53160;55.014;73.156;2023-03-14T00:47:35;21.80;;;17.20;;
63379;SDS011;53160;55.014;73.156;2023-03-14T00:50:19;20.20;;;16.60;;
63379;SDS011;53160;55.014;73.156;2023-03-14T00:53:04;15.80;;;13.40;;
63379;SDS011;53160;55.014;73.156;2023-03-14T00:55:30;18.40;;;16.80;;
63379;SDS011;53160;55.014;73.156;2023-03-14T00:58:01;15.40;;;13.80;;
63379;SDS011;53160;55.014;73.156;2023-03-14T01:00:36;19.80;;;18.60;;
63379;SDS011;53160;55.014;73.156;2023-03-14T01:03:02;23.60;;;20.20;;
63379;SDS011;53160;55.014;73.156;2023-03-14T01:05:28;16.80;;;16.00;;
63379;SDS011;53160;55.014;73.156;2023-03-14T01:07:59;19.00;;;18.60;;
63379;SDS011;53160;55.014;73.156;2023-03-14T01:10:31;22.80;;;20.20;;
63379;SDS011;53160;55.014;73.156;2023-03-14T01:13:08;18.40;;;14.80;;
63379;SDS011;53160;55.014;73.156;2023-03-14T01:15:36;15.80;;;15.00;;
63379;SDS011;53160;55.014;73.156;2023-03-14T01:18:02;23.00;;;15.00;;
63379;SDS011;53160;55.014;73.156;2023-03-14T01:20:47;21.80;;;18.20;;
63379;SDS011;53160;55.014;73.156;2023-03-14T01:23:31;17.60;;;15.80;;
63379;SDS011;53160;55.014;73.156;2023-03-14T01:26:27;18.00;;;16.20;;
63379;SDS011;53160;55.014;73.156;2023-03-14T01:29:12;48.60;;;38.40;;
63379;SDS011;53160;55.014;73.156;2023-03-14T01:32:00;21.60;;;18.80;;
63379;SDS011;53160;55.014;73.156;2023-03-14T01:34:26;28.40;;;23.40;;
63379;SDS011;53160;55.014;73.156;2023-03-14T01:36:52;22.20;;;18.40;;
63379;SDS011;53160;55.014;73.156;2023-03-14T01:39:18;21.80;;;21.40;;
63379;SDS011;53160;55.014;73.156;2023-03-14T01:41:51;26.00;;;25.40;;
63379;SDS011;53160;55.014;73.156;2023-03-14T01:44:27;25.60;;;19.00;;
63379;SDS011;53160;55.014;73.156;2023-03-14T01:46:53;24.80;;;22.20;;
63379;SDS011;53160;55.014;73.156;2023-03-14T01:49:21;26.80;;;21.60;;
63379;SDS011;53160;55.014;73.156;2023-03-14T01:54:39;22.00;;;18.20;;
63379;SDS011;53160;55.014;73.156;2023-03-14T01:59:33;24.20;;;20.20;;
63379;SDS011;53160;55.014;73.156;2023-03-14T02:02:00;24.20;;;19.80;;
63379;SDS011;53160;55.014;73.156;2023-03-14T02:04:32;20.20;;;15.60;;
63379;SDS011;53160;55.014;73.156;2023-03-14T02:07:10;22.20;;;16.00;;
63379;SDS011;53160;55.014;73.156;2023-03-14T02:09:43;15.20;;;13.00;;
63379;SDS011;53160;55.014;73.156;2023-03-14T02:12:19;27.00;;;20.20;;
63379;SDS011;53160;55.014;73.156;2023-03-14T02:14:50;18.40;;;15.60;;
63379;SDS011;53160;55.014;73.156;2023-03-14T02:17:34;22.40;;;18.40;;
63379;SDS011;53160;55.014;73.156;2023-03-14T02:20:17;9.40;;;9.20;;
63379;SDS011;53160;55.014;73.156;2023-03-14T02:22:54;18.40;;;16.40;;
63379;SDS011;53160;55.014;73.156;2023-03-14T02:27:47;19.00;;;16.80;;
63379;SDS011;53160;55.014;73.156;2023-03-14T02:30:27;14.80;;;12.80;;
63379;SDS011;53160;55.014;73.156;2023-03-14T02:32:55;19.60;;;17.40;;
63379;SDS011;53160;55.014;73.156;2023-03-14T02:35:23;19.00;;;16.80;;
63379;SDS011;53160;55.014;73.156;2023-03-14T02:37:55;22.40;;;19.40;;
63379;SDS011;53160;55.014;73.156;2023-03-14T02:40:35;26.20;;;21.20;;
63379;SDS011;53160;55.014;73.156;2023-03-14T02:43:06;18.80;;;15.80;;
63379;SDS011;53160;55.014;73.156;2023-03-14T02:45:34;23.40;;;21.40;;
63379;SDS011;53160;55.014;73.156;2023-03-14T02:48:02;27.60;;;22.80;;
63379;SDS011;53160;55.014;73.156;2023-03-14T02:50:36;19.80;;;15.40;;
63379;SDS011;53160;55.014;73.156;2023-03-14T02:53:07;27.00;;;20.60;;
63379;SDS011;53160;55.014;73.156;2023-03-14T02:55:38;21.60;;;18.80;;
63379;SDS011;53160;55.014;73.156;2023-03-14T02:58:10;33.00;;;29.00;;
63379;SDS011;53160;55.014;73.156;2023-03-14T03:00:36;21.60;;;19.60;;
63379;SDS011;53160;55.014;73.156;2023-03-14T03:03:04;24.60;;;21.60;;
63379;SDS011;53160;55.014;73.156;2023-03-14T03:05:41;24.20;;;22.60;;
63379;SDS011;53160;55.014;73.156;2023-03-14T03:08:10;36.60;;;32.20;;
63379;SDS011;53160;55.014;73.156;2023-03-14T03:10:36;42.40;;;39.20;;
63379;SDS011;53160;55.014;73.156;2023-03-14T03:13:02;42.00;;;37.80;;
63379;SDS011;53160;55.014;73.156;2023-03-14T03:15:36;43.20;;;37.20;;
63379;SDS011;53160;55.014;73.156;2023-03-14T03:18:02;38.60;;;35.00;;
63379;SDS011;53160;55.014;73.156;2023-03-14T03:20:33;45.40;;;38.40;;
63379;SDS011;53160;55.014;73.156;2023-03-14T03:22:59;55.00;;;48.25;;
63379;SDS011;53160;55.014;73.156;2023-03-14T03:25:25;51.20;;;47.20;;
63379;SDS011;53160;55.014;73.156;2023-03-14T03:27:52;42.80;;;36.80;;
63379;SDS011;53160;55.014;73.156;2023-03-14T03:30:28;35.40;;;31.20;;
63379;SDS011;53160;55.014;73.156;2023-03-14T03:32:54;44.40;;;35.00;;
63379;SDS011;53160;55.014;73.156;2023-03-14T03:35:20;28.00;;;25.40;;
63379;SDS011;53160;55.014;73.156;2023-03-14T03:37:56;43.00;;;37.80;;
63379;SDS011;53160;55.014;73.156;2023-03-14T03:40:23;45.20;;;44.00;;
63379;SDS011;53160;55.014;73.156;2023-03-14T03:42:49;35.00;;;26.80;;
63379;SDS011;53160;55.014;73.156;2023-03-14T03:45:15;33.60;;;30.60;;
63379;SDS011;53160;55.014;73.156;2023-03-14T03:47:49;40.60;;;36.40;;
63379;SDS011;53160;55.014;73.156;2023-03-14T03:50:15;39.25;;;37.50;;
63379;SDS011;53160;55.014;73.156;2023-03-14T03:52:41;29.20;;;28.80;;
63379;SDS011;53160;55.014;73.156;2023-03-14T03:55:08;35.00;;;32.00;;
63379;SDS011;53160;55.014;73.156;2023-03-14T03:57:39;34.80;;;32.40;;
63379;SDS011;53160;55.014;73.156;2023-03-14T04:00:14;35.20;;;30.60;;
63379;SDS011;53160;55.014;73.156;2023-03-14T04:02:46;21.40;;;19.20;;
63379;SDS011;53160;55.014;73.156;2023-03-14T04:05:14;36.20;;;31.60;;
63379;SDS011;53160;55.014;73.156;2023-03-14T04:07:47;38.00;;;32.00;;
63379;SDS011;53160;55.014;73.156;2023-03-14T04:10:24;24.60;;;22.00;;
63379;SDS011;53160;55.014;73.156;2023-03-14T04:13:10;21.00;;;17.80;;
63379;SDS011;53160;55.014;73.156;2023-03-14T04:15:42;29.40;;;28.80;;
63379;SDS011;53160;55.014;73.156;2023-03-14T04:18:27;48.40;;;40.80;;
63379;SDS011;53160;55.014;73.156;2023-03-14T04:20:55;45.40;;;39.80;;
63379;SDS011;53160;55.014;73.156;2023-03-14T04:23:35;54.60;;;48.20;;
63379;SDS011;53160;55.014;73.156;2023-03-14T04:26:07;39.80;;;37.00;;
63379;SDS011;53160;55.014;73.156;2023-03-14T04:28:33;32.00;;;26.00;;
63379;SDS011;53160;55.014;73.156;2023-03-14T04:31:06;38.60;;;33.80;;
63379;SDS011;53160;55.014;73.156;2023-03-14T04:33:33;38.80;;;33.80;;
63379;SDS011;53160;55.014;73.156;2023-03-14T04:35:59;30.60;;;29.00;;
63379;SDS011;53160;55.014;73.156;2023-03-14T04:38:31;39.00;;;37.40;;
63379;SDS011;53160;55.014;73.156;2023-03-14T04:40:58;43.00;;;37.20;;
63379;SDS011;53160;55.014;73.156;2023-03-14T04:43:29;48.80;;;33.80;;
63379;SDS011;53160;55.014;73.156;2023-03-14T04:46:02;33.40;;;27.80;;
63379;SDS011;53160;55.014;73.156;2023-03-14T04:48:28;28.40;;;27.00;;
63379;SDS011;53160;55.014;73.156;2023-03-14T04:50:55;44.00;;;38.40;;
63379;SDS011;53160;55.014;73.156;2023-03-14T04:53:30;31.60;;;26.60;;
63379;SDS011;53160;55.014;73.156;2023-03-14T04:55:57;36.40;;;30.60;;
63379;SDS011;53160;55.014;73.156;2023-03-14T04:58:30;49.80;;;45.60;;
63379;SDS011;53160;55.014;73.156;2023-03-14T05:01:05;41.20;;;32.00;;
63379;SDS011;53160;55.014;73.156;2023-03-14T05:09:43;60.80;;;49.60;;
63379;SDS011;53160;55.014;73.156;2023-03-14T05:12:27;28.20;;;25.00;;
63379;SDS011;53160;55.014;73.156;2023-03-14T05:15:16;44.60;;;40.40;;
63379;SDS011;53160;55.014;73.156;2023-03-14T05:18:08;41.60;;;33.00;;
63379;SDS011;53160;55.014;73.156;2023-03-14T05:20:52;33.80;;;30.60;;
63379;SDS011;53160;55.014;73.156;2023-03-14T05:23:49;33.00;;;25.80;;
63379;SDS011;53160;55.014;73.156;2023-03-14T05:26:44;40.00;;;35.80;;
63379;SDS011;53160;55.014;73.156;2023-03-14T05:29:35;43.00;;;36.40;;
63379;SDS011;53160;55.014;73.156;2023-03-14T05:32:24;33.40;;;30.60;;
63379;SDS011;53160;55.014;73.156;2023-03-14T05:35:08;33.60;;;31.40;;
63379;SDS011;53160;55.014;73.156;2023-03-14T05:37:48;54.40;;;44.40;;
63379;SDS011;53160;55.014;73.156;2023-03-14T05:40:14;40.50;;;34.25;;
63379;SDS011;53160;55.014;73.156;2023-03-14T05:43:03;46.20;;;38.80;;
63379;SDS011;53160;55.014;73.156;2023-03-14T05:45:50;26.60;;;21.60;;
63379;SDS011;53160;55.014;73.156;2023-03-14T05:48:32;60.00;;;49.40;;
63379;SDS011;53160;55.014;73.156;2023-03-14T05:51:24;34.60;;;31.00;;
63379;SDS011;53160;55.014;73.156;2023-03-14T05:54:09;27.40;;;22.80;;
63379;SDS011;53160;55.014;73.156;2023-03-14T05:57:13;25.60;;;23.00;;
63379;SDS011;53160;55.014;73.156;2023-03-14T06:00:06;21.40;;;17.40;;
63379;SDS011;53160;55.014;73.156;2023-03-14T06:02:53;28.00;;;22.80;;
63379;SDS011;53160;55.014;73.156;2023-03-14T06:05:23;18.80;;;17.20;;
63379;SDS011;53160;55.014;73.156;2023-03-14T06:07:55;35.80;;;30.40;;
63379;SDS011;53160;55.014;73.156;2023-03-14T06:10:27;21.00;;;20.00;;
63379;SDS011;53160;55.014;73.156;2023-03-14T06:12:53;23.40;;;18.80;;
63379;SDS011;53160;55.014;73.156;2023-03-14T06:15:24;16.40;;;15.20;;
63379;SDS011;53160;55.014;73.156;2023-03-14T06:17:53;29.40;;;24.40;;
63379;SDS011;53160;55.014;73.156;2023-03-14T06:20:20;20.80;;;15.40;;
63379;SDS011;53160;55.014;73.156;2023-03-14T06:22:45;20.40;;;19.40;;
63379;SDS011;53160;55.014;73.156;2023-03-14T06:25:29;27.40;;;22.80;;
63379;SDS011;53160;55.014;73.156;2023-03-14T06:27:55;13.20;;;10.00;;
63379;SDS011;53160;55.014;73.156;2023-03-14T06:30:31;14.40;;;11.40;;
63379;SDS011;53160;55.014;73.156;2023-03-14T06:32:57;12.00;;;12.00;;
63379;SDS011;53160;55.014;73.156;2023-03-14T06:35:23;30.20;;;19.60;;
63379;SDS011;53160;55.014;73.156;2023-03-14T06:37:49;18.40;;;17.60;;
63379;SDS011;53160;55.014;73.156;2023-03-14T06:40:22;21.20;;;18.80;;
63379;SDS011;53160;55.014;73.156;2023-03-14T06:43:08;15.00;;;13.80;;
63379;SDS011;53160;55.014;73.156;2023-03-14T06:45:43;16.60;;;14.60;;
63379;SDS011;53160;55.014;73.156;2023-03-14T06:48:09;27.00;;;25.80;;
63379;SDS011;53160;55.014;73.156;2023-03-14T06:50:45;28.80;;;24.60;;
63379;SDS011;53160;55.014;73.156;2023-03-14T06:53:13;20.80;;;17.00;;
63379;SDS011;53160;55.014;73.156;2023-03-14T06:55:46;21.80;;;17.80;;
63379;SDS011;53160;55.014;73.156;2023-03-14T06:58:14;18.40;;;13.40;;
63379;SDS011;53160;55.014;73.156;2023-03-14T07:00:44;15.80;;;14.80;;
63379;SDS011;53160;55.014;73.156;2023-03-14T07:03:13;16.80;;;15.00;;
63379;SDS011;53160;55.014;73.156;2023-03-14T07:05:47;26.00;;;25.60;;
63379;SDS011;53160;55.014;73.156;2023-03-14T07:08:13;20.20;;;18.60;;
63379;SDS011;53160;55.014;73.156;2023-03-14T07:10:44;27.60;;;25.00;;
63379;SDS011;53160;55.014;73.156;2023-03-14T07:13:11;28.20;;;23.80;;
63379;SDS011;53160;55.014;73.156;2023-03-14T07:15:53;19.80;;;18.40;;
63379;SDS011;53160;55.014;73.156;2023-03-14T07:18:21;20.00;;;17.60;;
63379;SDS011;53160;55.014;73.156;2023-03-14T07:20:47;16.60;;;15.20;;
63379;SDS011;53160;55.014;73.156;2023-03-14T07:23:18;23.20;;;19.20;;
63379;SDS011;53160;55.014;73.156;2023-03-14T07:25:50;20.20;;;18.40;;
63379;SDS011;53160;55.014;73.156;2023-03-14T07:28:28;26.60;;;22.60;;
63379;SDS011;53160;55.014;73.156;2023-03-14T07:31:06;18.40;;;17.00;;
63379;SDS011;53160;55.014;73.156;2023-03-14T07:33:32;17.00;;;16.20;;
63379;SDS011;53160;55.014;73.156;2023-03-14T07:35:58;17.60;;;14.60;;
63379;SDS011;53160;55.014;73.156;2023-03-14T07:38:26;23.80;;;18.80;;
63379;SDS011;53160;55.014;73.156;2023-03-14T07:41:13;16.60;;;12.20;;
63379;SDS011;53160;55.014;73.156;2023-03-14T07:43:59;12.00;;;10.00;;
63379;SDS011;53160;55.014;73.156;2023-03-14T07:46:30;9.00;;;7.60;;
63379;SDS011;53160;55.014;73.156;2023-03-14T07:48:56;16.00;;;15.80;;
63379;SDS011;53160;55.014;73.156;2023-03-14T07:51:22;9.20;;;8.00;;
63379;SDS011;53160;55.014;73.156;2023-03-14T07:53:48;13.50;;;11.75;;
63379;SDS011;53160;55.014;73.156;2023-03-14T07:56:14;11.00;;;9.80;;
63379;SDS011;53160;55.014;73.156;2023-03-14T07:58:41;12.00;;;11.60;;
63379;SDS011;53160;55.014;73.156;2023-03-14T08:01:07;14.00;;;13.00;;
63379;SDS011;53160;55.014;73.156;2023-03-14T08:03:43;12.20;;;10.00;;
63379;SDS011;53160;55.014;73.156;2023-03-14T08:06:09;15.00;;;12.00;;
63379;SDS011;53160;55.014;73.156;2023-03-14T08:08:35;11.50;;;10.50;;
63379;SDS011;53160;55.014;73.156;2023-03-14T08:11:05;10.80;;;10.80;;
63379;SDS011;53160;55.014;73.156;2023-03-14T08:13:37;8.25;;;7.75;;
63379;SDS011;53160;55.014;73.156;2023-03-14T08:16:03;11.60;;;8.40;;
63379;SDS011;53160;55.014;73.156;2023-03-14T08:18:30;12.25;;;11.25;;
63379;SDS011;53160;55.014;73.156;2023-03-14T08:21:00;14.25;;;11.25;;
63379;SDS011;53160;55.014;73.156;2023-03-14T08:23:29;18.80;;;18.80;;
63379;SDS011;53160;55.014;73.156;2023-03-14T08:25:57;16.00;;;15.00;;
63379;SDS011;53160;55.014;73.156;2023-03-14T08:28:23;17.50;;;13.25;;
63379;SDS011;53160;55.014;73.156;2023-03-14T08:30:54;13.50;;;12.00;;
63379;SDS011;53160;55.014;73.156;2023-03-14T08:33:30;20.60;;;19.00;;
63379;SDS011;53160;55.014;73.156;2023-03-14T08:35:57;21.60;;;19.20;;
63379;SDS011;53160;55.014;73.156;2023-03-14T08:38:24;10.25;;;7.25;;
63379;SDS011;53160;55.014;73.156;2023-03-14T08:40:54;11.75;;;11.25;;
63379;SDS011;53160;55.014;73.156;2023-03-14T08:43:21;11.00;;;8.50;;
63379;SDS011;53160;55.014;73.156;2023-03-14T08:45:47;10.50;;;9.75;;
63379;SDS011;53160;55.014;73.156;2023-03-14T08:48:12;8.50;;;7.00;;
63379;SDS011;53160;55.014;73.156;2023-03-14T08:50:40;7.75;;;7.75;;
63379;SDS011;53160;55.014;73.156;2023-03-14T08:53:07;10.00;;;7.50;;
63379;SDS011;53160;55.014;73.156;2023-03-14T08:55:43;8.00;;;8.00;;
63379;SDS011;53160;55.014;73.156;2023-03-14T08:58:09;11.25;;;10.50;;
63379;SDS011;53160;55.014;73.156;2023-03-14T09:00:45;9.75;;;9.50;;
63379;SDS011;53160;55.014;73.156;2023-03-14T09:03:21;10.25;;;9.50;;
63379;SDS011;53160;55.014;73.156;2023-03-14T09:05:49;9.50;;;8.25;;
63379;SDS011;53160;55.014;73.156;2023-03-14T09:08:15;9.00;;;7.00;;
63379;SDS011;53160;55.014;73.156;2023-03-14T09:10:41;8.75;;;8.00;;
63379;SDS011;53160;55.014;73.156;2023-03-14T09:13:07;8.00;;;8.00;;
63379;SDS011;53160;55.014;73.156;2023-03-14T09:15:33;11.25;;;9.75;;
63379;SDS011;53160;55.014;73.156;2023-03-14T09:17:59;17.50;;;14.50;;
63379;SDS011;53160;55.014;73.156;2023-03-14T09:20:25;5.75;;;5.75;;
63379;SDS011;53160;55.014;73.156;2023-03-14T09:22:51;9.25;;;8.75;;
63379;SDS011;53160;55.014;73.156;2023-03-14T09:25:22;10.67;;;10.33;;
63379;SDS011;53160;55.014;73.156;2023-03-14T09:27:54;12.00;;;11.00;;
63379;SDS011;53160;55.014;73.156;2023-03-14T09:30:25;13.25;;;12.00;;
63379;SDS011;53160;55.014;73.156;2023-03-14T09:32:51;6.00;;;6.00;;
63379;SDS011;53160;55.014;73.156;2023-03-14T09:35:17;8.00;;;7.75;;
63379;SDS011;53160;55.014;73.156;2023-03-14T09:37:42;12.25;;;11.50;;
63379;SDS011;53160;55.014;73.156;2023-03-14T09:40:13;12.00;;;12.00;;
63379;SDS011;53160;55.014;73.156;2023-03-14T09:42:43;12.00;;;11.25;;
63379;SDS011;53160;55.014;73.156;2023-03-14T09:45:23;8.75;;;8.50;;
63379;SDS011;53160;55.014;73.156;2023-03-14T09:48:01;6.50;;;6.50;;
63379;SDS011;53160;55.014;73.156;2023-03-14T09:50:31;10.75;;;9.00;;
63379;SDS011;53160;55.014;73.156;2023-03-14T09:53:11;10.75;;;9.00;;
63379;SDS011;53160;55.014;73.156;2023-03-14T09:55:37;8.50;;;8.25;;
63379;SDS011;53160;55.014;73.156;2023-03-14T09:58:08;7.50;;;7.00;;
63379;SDS011;53160;55.014;73.156;2023-03-14T10:00:45;10.00;;;9.00;;
63379;SDS011;53160;55.014;73.156;2023-03-14T10:05:42;8.75;;;8.00;;
63379;SDS011;53160;55.014;73.156;2023-03-14T10:08:12;8.75;;;7.75;;
63379;SDS011;53160;55.014;73.156;2023-03-14T10:10:38;7.75;;;6.75;;
63379;SDS011;53160;55.014;73.156;2023-03-14T10:15:39;9.25;;;8.50;;
63379;SDS011;53160;55.014;73.156;2023-03-14T10:18:11;6.00;;;6.00;;
63379;SDS011;53160;55.014;73.156;2023-03-14T10:20:39;9.75;;;6.50;;
63379;SDS011;53160;55.014;73.156;2023-03-14T10:25:44;8.25;;;7.50;;
63379;SDS011;53160;55.014;73.156;2023-03-14T10:28:25;13.00;;;10.50;;
63379;SDS011;53160;55.014;73.156;2023-03-14T10:30:51;7.75;;;7.50;;
63379;SDS011;53160;55.014;73.156;2023-03-14T10:35:44;3.67;;;3.33;;
63379;SDS011;53160;55.014;73.156;2023-03-14T10:38:13;11.50;;;11.00;;
63379;SDS011;53160;55.014;73.156;2023-03-14T10:40:46;13.75;;;11.75;;
63379;SDS011;53160;55.014;73.156;2023-03-14T10:43:34;8.00;;;7.50;;
63379;SDS011;53160;55.014;73.156;2023-03-14T10:46:17;23.25;;;20.50;;
63379;SDS011;53160;55.014;73.156;2023-03-14T10:49:07;12.50;;;12.25;;
63379;SDS011;53160;55.014;73.156;2023-03-14T10:51:33;6.75;;;5.50;;
63379;SDS011;53160;55.014;73.156;2023-03-14T10:54:00;8.00;;;7.75;;
63379;SDS011;53160;55.014;73.156;2023-03-14T10:56:33;8.00;;;6.00;;
63379;SDS011;53160;55.014;73.156;2023-03-14T10:59:13;7.25;;;5.75;;
63379;SDS011;53160;55.014;73.156;2023-03-14T11:01:55;8.25;;;7.25;;
63379;SDS011;53160;55.014;73.156;2023-03-14T11:07:10;9.75;;;5.75;;
63379;SDS011;53160;55.014;73.156;2023-03-14T11:15:00;18.60;;;16.40;;
63379;SDS011;53160;55.014;73.156;2023-03-14T11:17:38;18.75;;;14.00;;
63379;SDS011;53160;55.014;73.156;2023-03-14T11:28:21;11.60;;;11.20;;
63379;SDS011;53160;55.014;73.156;2023-03-14T11:30:55;14.60;;;13.00;;
63379;SDS011;53160;55.014;73.156;2023-03-14T11:36:10;9.25;;;9.00;;
63379;SDS011;53160;55.014;73.156;2023-03-14T11:38:38;11.25;;;10.25;;
63379;SDS011;53160;55.014;73.156;2023-03-14T11:41:12;17.20;;;15.40;;
63379;SDS011;53160;55.014;73.156;2023-03-14T11:43:40;14.40;;;13.80;;
63379;SDS011;53160;55.014;73.156;2023-03-14T11:46:18;10.00;;;7.60;;
63379;SDS011;53160;55.014;73.156;2023-03-14T11:48:51;15.60;;;12.60;;
63379;SDS011;53160;55.014;73.156;2023-03-14T11:51:34;13.20;;;10.80;;
63379;SDS011;53160;55.014;73.156;2023-03-14T11:55:13;14.60;;;13.00;;
63379;SDS011;53160;55.014;73.156;2023-03-14T11:57:19;13.00;;;11.40;;
63379;SDS011;53160;55.014;73.156;2023-03-14T11:59:53;14.60;;;12.60;;
63379;SDS011;53160;55.014;73.156;2023-03-14T12:02:35;10.60;;;6.40;;
63379;SDS011;53160;55.014;73.156;2023-03-14T12:07:41;13.40;;;11.80;;
63379;SDS011;53160;55.014;73.156;2023-03-14T12:10:16;14.00;;;13.40;;
63379;SDS011;53160;55.014;73.156;2023-03-14T12:12:42;17.40;;;13.20;;
63379;SDS011;53160;55.014;73.156;2023-03-14T12:15:21;16.20;;;13.80;;
63379;SDS011;53160;55.014;73.156;2023-03-14T12:17:53;14.80;;;14.80;;
63379;SDS011;53160;55.014;73.156;2023-03-14T12:20:29;23.80;;;21.80;;
63379;SDS011;53160;55.014;73.156;2023-03-14T12:23:02;19.20;;;16.20;;
63379;SDS011;53160;55.014;73.156;2023-03-14T12:25:30;21.00;;;17.20;;
63379;SDS011;53160;55.014;73.156;2023-03-14T12:30:37;13.20;;;11.60;;
63379;SDS011;53160;55.014;73.156;2023-03-14T12:43:32;14.80;;;14.00;;
63379;SDS011;53160;55.014;73.156;2023-03-14T12:46:15;20.80;;;16.40;;
63379;SDS011;53160;55.014;73.156;2023-03-14T12:51:33;13.20;;;12.80;;
63379;SDS011;53160;55.014;73.156;2023-03-14T12:57:16;16.00;;;13.60;;
63379;SDS011;53160;55.014;73.156;2023-03-14T12:59:56;14.00;;;11.40;;
63379;SDS011;53160;55.014;73.156;2023-03-14T13:05:03;13.00;;;10.80;;
63379;SDS011;53160;55.014;73.156;2023-03-14T13:10:02;10.80;;;9.80;;
63379;SDS011;53160;55.014;73.156;2023-03-14T13:12:44;16.20;;;11.40;;
63379;SDS011;53160;55.014;73.156;2023-03-14T13:15:17;13.00;;;11.00;;
63379;SDS011;53160;55.014;73.156;2023-03-14T13:17:50;11.40;;;9.60;;
63379;SDS011;53160;55.014;73.156;2023-03-14T13:20:19;18.60;;;16.00;;
63379;SDS011;53160;55.014;73.156;2023-03-14T13:22:47;19.20;;;16.60;;
63379;SDS011;53160;55.014;73.156;2023-03-14T13:25:14;19.00;;;16.40;;
63379;SDS011;53160;55.014;73.156;2023-03-14T13:27:42;16.00;;;13.20;;
63379;SDS011;53160;55.014;73.156;2023-03-14T13:30:14;15.60;;;14.60;;
63379;SDS011;53160;55.014;73.156;2023-03-14T13:32:42;17.20;;;15.80;;
63379;SDS011;53160;55.014;73.156;2023-03-14T13:35:20;19.60;;;18.00;;
63379;SDS011;53160;55.014;73.156;2023-03-14T13:37:46;19.60;;;18.00;;
63379;SDS011;53160;55.014;73.156;2023-03-14T13:40:19;22.60;;;19.20;;
63379;SDS011;53160;55.014;73.156;2023-03-14T13:42:45;24.00;;;22.00;;
63379;SDS011;53160;55.014;73.156;2023-03-14T13:45:12;28.80;;;22.60;;
63379;SDS011;53160;55.014;73.156;2023-03-14T13:47:39;28.60;;;25.40;;
63379;SDS011;53160;55.014;73.156;2023-03-14T13:50:05;26.20;;;21.20;;
63379;SDS011;53160;55.014;73.156;2023-03-14T13:52:32;38.00;;;32.20;;
63379;SDS011;53160;55.014;73.156;2023-03-14T13:55:02;26.00;;;23.40;;
63379;SDS011;53160;55.014;73.156;2023-03-14T13:57:48;26.60;;;24.60;;
63379;SDS011;53160;55.014;73.156;2023-03-14T14:00:18;26.60;;;19.60;;
63379;SDS011;53160;55.014;73.156;2023-03-14T14:02:55;26.80;;;21.00;;
63379;SDS011;53160;55.014;73.156;2023-03-14T14:05:22;32.60;;;28.20;;
63379;SDS011;53160;55.014;73.156;2023-03-14T14:07:48;28.60;;;25.60;;
63379;SDS011;53160;55.014;73.156;2023-03-14T14:10:21;26.00;;;23.40;;
63379;SDS011;53160;55.014;73.156;2023-03-14T14:12:54;26.20;;;22.80;;
63379;SDS011;53160;55.014;73.156;2023-03-14T14:15:26;22.80;;;20.00;;
63379;SDS011;53160;55.014;73.156;2023-03-14T14:18:04;20.60;;;19.60;;
63379;SDS011;53160;55.014;73.156;2023-03-14T14:20:33;29.00;;;25.20;;
63379;SDS011;53160;55.014;73.156;2023-03-14T14:25:57;34.40;;;28.40;;
63379;SDS011;53160;55.014;73.156;2023-03-14T14:28:28;21.80;;;21.20;;
63379;SDS011;53160;55.014;73.156;2023-03-14T14:33:41;23.80;;;23.40;;
63379;SDS011;53160;55.014;73.156;2023-03-14T14:36:24;27.20;;;22.80;;
63379;SDS011;53160;55.014;73.156;2023-03-14T14:41:35;24.60;;;22.40;;
63379;SDS011;53160;55.014;73.156;2023-03-14T14:44:02;27.60;;;25.00;;
63379;SDS011;53160;55.014;73.156;2023-03-14T14:46:30;20.40;;;20.40;;
63379;SDS011;53160;55.014;73.156;2023-03-14T14:49:02;29.20;;;23.40;;
63379;SDS011;53160;55.014;73.156;2023-03-14T14:51:38;24.00;;;17.40;;
63379;SDS011;53160;55.014;73.156;2023-03-14T14:54:15;22.80;;;22.40;;
63379;SDS011;53160;55.014;73.156;2023-03-14T14:56:46;28.00;;;24.60;;
63379;SDS011;53160;55.014;73.156;2023-03-14T14:59:25;25.00;;;21.00;;
63379;SDS011;53160;55.014;73.156;2023-03-14T15:01:58;19.80;;;18.20;;
63379;SDS011;53160;55.014;73.156;2023-03-14T15:04:25;20.20;;;18.80;;
63379;SDS011;53160;55.014;73.156;2023-03-14T15:06:51;29.40;;;27.00;;
63379;SDS011;53160;55.014;73.156;2023-03-14T15:09:18;26.00;;;21.00;;
63379;SDS011;53160;55.014;73.156;2023-03-14T15:11:46;17.00;;;13.20;;
63379;SDS011;53160;55.014;73.156;2023-03-14T15:14:12;28.60;;;23.80;;
63379;SDS011;53160;55.014;73.156;2023-03-14T15:16:38;28.50;;;23.25;;
63379;SDS011;53160;55.014;73.156;2023-03-14T15:19:10;20.80;;;20.60;;
63379;SDS011;53160;55.014;73.156;2023-03-14T15:21:36;22.20;;;20.40;;
63379;SDS011;53160;55.014;73.156;2023-03-14T15:24:08;31.40;;;26.60;;
63379;SDS011;53160;55.014;73.156;2023-03-14T15:26:34;22.20;;;18.20;;
63379;SDS011;53160;55.014;73.156;2023-03-14T15:29:00;23.00;;;18.20;;
63379;SDS011;53160;55.014;73.156;2023-03-14T15:31:26;18.00;;;14.40;;
63379;SDS011;53160;55.014;73.156;2023-03-14T15:34:02;28.40;;;20.60;;
63379;SDS011;53160;55.014;73.156;2023-03-14T15:36:38;27.80;;;24.20;;
63379;SDS011;53160;55.014;73.156;2023-03-14T15:39:10;21.00;;;17.20;;
63379;SDS011;53160;55.014;73.156;2023-03-14T15:41:37;21.20;;;18.40;;
63379;SDS011;53160;55.014;73.156;2023-03-14T15:44:13;24.60;;;21.40;;
63379;SDS011;53160;55.014;73.156;2023-03-14T15:46:39;7.50;;;5.00;;
63379;SDS011;53160;55.014;73.156;2023-03-14T15:49:15;14.20;;;13.60;;
63379;SDS011;53160;55.014;73.156;2023-03-14T15:51:41;25.25;;;22.75;;
63379;SDS011;53160;55.014;73.156;2023-03-14T15:54:12;25.40;;;20.20;;
63379;SDS011;53160;55.014;73.156;2023-03-14T15:56:38;24.00;;;19.00;;
63379;SDS011;53160;55.014;73.156;2023-03-14T15:59:04;19.60;;;18.00;;
63379;SDS011;53160;55.014;73.156;2023-03-14T16:01:40;14.80;;;14.40;;